Private Wetterstation Sandau
Wetterdaten: Mittwoch, 30.05.2012
Datum Zeit Temp. A. Feuchte A. Luftdruck Regen Wind Richtung Richtung Taupunkt Windchill
30.05.2012 00:01 14,1 C 59 % 1014,9 hPa 0,0 l/m 3,2 km/h (1 Bft) N 360 6,2 C 14,1 C
30.05.2012 00:06 13,9 C 59 % 1014,8 hPa 0,0 l/m 1,4 km/h (1 Bft) NO 45 6,0 C 13,9 C
30.05.2012 00:11 13,8 C 60 % 1014,9 hPa 0,0 l/m 2,5 km/h (1 Bft) N-NO 22 6,2 C 13,8 C
30.05.2012 00:16 13,6 C 61 % 1014,9 hPa 0,0 l/m 1,8 km/h (1 Bft) N-NO 22 6,2 C 13,6 C
30.05.2012 00:21 13,6 C 61 % 1015,0 hPa 0,0 l/m 0,0 km/h (0 Bft) NO 45 6,2 C 13,6 C
30.05.2012 00:26 13,6 C 61 % 1015,0 hPa 0,0 l/m 0,0 km/h (0 Bft) NO 45 6,2 C 13,6 C
30.05.2012 00:31 13,6 C 61 % 1015,1 hPa 0,0 l/m 0,0 km/h (0 Bft) N-NO 22 6,2 C 13,6 C
30.05.2012 00:36 13,7 C 61 % 1015,1 hPa 0,0 l/m 0,0 km/h (0 Bft) N-NO 22 6,3 C 13,7 C
30.05.2012 00:41 13,8 C 61 % 1014,9 hPa 0,0 l/m 0,0 km/h (0 Bft) N-NO 22 6,4 C 13,8 C
30.05.2012 00:46 13,8 C 61 % 1015,0 hPa 0,0 l/m 0,0 km/h (0 Bft) SW 225 6,4 C 13,8 C
30.05.2012 00:51 13,9 C 62 % 1015,0 hPa 0,0 l/m 0,0 km/h (0 Bft) SW 225 6,7 C 13,9 C
30.05.2012 00:56 14,1 C 61 % 1015,0 hPa 0,0 l/m 0,0 km/h (0 Bft) SW 225 6,7 C 14,1 C
30.05.2012 01:01 14,2 C 61 % 1015,0 hPa 0,0 l/m 0,0 km/h (0 Bft) SW 225 6,8 C 14,2 C
30.05.2012 01:06 14,2 C 61 % 1015,0 hPa 0,0 l/m 0,0 km/h (0 Bft) SW 225 6,8 C 14,2 C
30.05.2012 01:11 14,3 C 61 % 1015,0 hPa 0,0 l/m 1,1 km/h (1 Bft) N-NW 337 6,9 C 14,3 C
30.05.2012 01:16 14,1 C 61 % 1014,9 hPa 0,0 l/m 0,0 km/h (0 Bft) N-NW 337 6,7 C 14,1 C
30.05.2012 01:21 13,9 C 61 % 1015,0 hPa 0,0 l/m 0,0 km/h (0 Bft) N-NW 337 6,5 C 13,9 C
30.05.2012 01:26 13,8 C 61 % 1015,0 hPa 0,0 l/m 0,0 km/h (0 Bft) W-NW 292 6,4 C 13,8 C
30.05.2012 01:31 13,8 C 62 % 1015,0 hPa 0,0 l/m 0,0 km/h (0 Bft) W-NW 292 6,6 C 13,8 C
30.05.2012 01:36 13,8 C 62 % 1015,0 hPa 0,0 l/m 0,0 km/h (0 Bft) W 270 6,6 C 13,8 C
30.05.2012 01:41 13,8 C 62 % 1015,0 hPa 0,0 l/m 1,4 km/h (1 Bft) NW 315 6,6 C 13,8 C
30.05.2012 01:46 13,8 C 63 % 1015,0 hPa 0,0 l/m 0,0 km/h (0 Bft) W 270 6,9 C 13,8 C
30.05.2012 01:51 13,8 C 63 % 1015,1 hPa 0,0 l/m 1,1 km/h (1 Bft) W-NW 292 6,9 C 13,8 C
30.05.2012 01:56 13,7 C 63 % 1015,1 hPa 0,0 l/m 0,0 km/h (0 Bft) W-NW 292 6,8 C 13,7 C
30.05.2012 02:01 13,6 C 64 % 1015,0 hPa 0,0 l/m 0,0 km/h (0 Bft) W 270 6,9 C 13,6 C
30.05.2012 02:06 13,6 C 64 % 1015,1 hPa 0,0 l/m 0,0 km/h (0 Bft) W 270 6,9 C 13,6 C
30.05.2012 02:11 13,6 C 64 % 1015,0 hPa 0,0 l/m 0,0 km/h (0 Bft) W-SW 247 6,9 C 13,6 C
30.05.2012 02:16 13,5 C 65 % 1015,0 hPa 0,0 l/m 0,0 km/h (0 Bft) W 270 7,1 C 13,5 C
30.05.2012 02:21 13,5 C 65 % 1015,1 hPa 0,0 l/m 0,0 km/h (0 Bft) NW 315 7,1 C 13,5 C
30.05.2012 02:26 13,4 C 65 % 1014,9 hPa 0,0 l/m 0,0 km/h (0 Bft) W 270 7,0 C 13,4 C
30.05.2012 02:31 13,4 C 65 % 1014,9 hPa 0,0 l/m 0,0 km/h (0 Bft) W 270 7,0 C 13,4 C
30.05.2012 02:36 13,4 C 65 % 1014,9 hPa 0,0 l/m 0,0 km/h (0 Bft) W 270 7,0 C 13,4 C
30.05.2012 02:41 13,3 C 66 % 1014,9 hPa 0,0 l/m 1,4 km/h (1 Bft) W 270 7,1 C 13,3 C
30.05.2012 02:46 13,3 C 66 % 1014,9 hPa 0,0 l/m 0,0 km/h (0 Bft) W 270 7,1 C 13,3 C
30.05.2012 02:51 13,3 C 66 % 1014,9 hPa 0,0 l/m 0,0 km/h (0 Bft) W 270 7,1 C 13,3 C
30.05.2012 02:56 13,2 C 66 % 1014,9 hPa 0,0 l/m 0,0 km/h (0 Bft) W 270 7,0 C 13,2 C
30.05.2012 03:01 13,1 C 66 % 1014,9 hPa 0,0 l/m 0,0 km/h (0 Bft) W 270 6,9 C 13,1 C
30.05.2012 03:06 13,0 C 66 % 1014,9 hPa 0,0 l/m 0,0 km/h (0 Bft) W 270 6,8 C 13,0 C
30.05.2012 03:11 13,0 C 66 % 1014,9 hPa 0,0 l/m 1,1 km/h (1 Bft) W 270 6,8 C 13,0 C
30.05.2012 03:16 12,9 C 66 % 1015,0 hPa 0,0 l/m 1,8 km/h (1 Bft) W 270 6,7 C 12,9 C
30.05.2012 03:21 12,9 C 66 % 1015,0 hPa 0,0 l/m 0,0 km/h (0 Bft) W 270 6,7 C 12,9 C
30.05.2012 03:26 12,8 C 66 % 1015,0 hPa 0,0 l/m 0,0 km/h (0 Bft) NW 315 6,6 C 12,8 C
30.05.2012 03:31 12,6 C 66 % 1015,0 hPa 0,0 l/m 0,0 km/h (0 Bft) NW 315 6,4 C 12,6 C
30.05.2012 03:36 12,4 C 67 % 1015,0 hPa 0,0 l/m 0,0 km/h (0 Bft) NW 315 6,4 C 12,4 C
30.05.2012 03:41 12,4 C 67 % 1015,0 hPa 0,0 l/m 0,0 km/h (0 Bft) W-NW 292 6,4 C 12,4 C
30.05.2012 03:46 12,3 C 67 % 1015,0 hPa 0,0 l/m 0,0 km/h (0 Bft) W-NW 292 6,4 C 12,3 C
30.05.2012 03:51 12,4 C 67 % 1014,9 hPa 0,0 l/m 0,0 km/h (0 Bft) W-NW 292 6,4 C 12,4 C
30.05.2012 03:56 12,4 C 67 % 1015,0 hPa 0,0 l/m 0,0 km/h (0 Bft) W-NW 292 6,4 C 12,4 C
30.05.2012 04:01 12,5 C 67 % 1015,0 hPa 0,0 l/m 0,0 km/h (0 Bft) W-NW 292 6,5 C 12,5 C
30.05.2012 04:06 12,6 C 67 % 1015,0 hPa 0,0 l/m 0,0 km/h (0 Bft) W-NW 292 6,6 C 12,6 C
30.05.2012 04:11 12,6 C 67 % 1015,1 hPa 0,0 l/m 1,1 km/h (1 Bft) W 270 6,6 C 12,6 C
30.05.2012 04:16 12,6 C 67 % 1015,0 hPa 0,0 l/m 0,0 km/h (0 Bft) W 270 6,6 C 12,6 C
30.05.2012 04:21 12,6 C 67 % 1015,1 hPa 0,0 l/m 0,0 km/h (0 Bft) W 270 6,6 C 12,6 C
30.05.2012 04:26 12,6 C 67 % 1015,1 hPa 0,0 l/m 0,0 km/h (0 Bft) W 270 6,6 C 12,6 C
30.05.2012 04:31 12,6 C 67 % 1014,9 hPa 0,0 l/m 0,0 km/h (0 Bft) W 270 6,6 C 12,6 C
30.05.2012 04:36 12,6 C 67 % 1014,8 hPa 0,0 l/m 0,0 km/h (0 Bft) W 270 6,6 C 12,6 C
30.05.2012 04:41 12,6 C 67 % 1014,9 hPa 0,0 l/m 0,0 km/h (0 Bft) W 270 6,6 C 12,6 C
30.05.2012 04:46 12,7 C 67 % 1014,9 hPa 0,0 l/m 0,0 km/h (0 Bft) W 270 6,7 C 12,7 C
30.05.2012 04:51 12,6 C 68 % 1014,9 hPa 0,0 l/m 0,0 km/h (0 Bft) W 270 6,9 C 12,6 C
30.05.2012 04:56 12,5 C 68 % 1015,0 hPa 0,0 l/m 0,0 km/h (0 Bft) W 270 6,8 C 12,5 C
30.05.2012 05:01 12,4 C 68 % 1015,0 hPa 0,0 l/m 0,0 km/h (0 Bft) W 270 6,7 C 12,4 C
30.05.2012 05:06 12,3 C 68 % 1015,0 hPa 0,0 l/m 0,0 km/h (0 Bft) W 270 6,6 C 12,3 C
30.05.2012 05:11 12,4 C 68 % 1015,0 hPa 0,0 l/m 0,0 km/h (0 Bft) W 270 6,7 C 12,4 C
30.05.2012 05:16 12,4 C 68 % 1015,1 hPa 0,0 l/m 2,9 km/h (1 Bft) W-SW 247 6,7 C 12,4 C
30.05.2012 05:21 12,4 C 68 % 1015,0 hPa 0,0 l/m 2,5 km/h (1 Bft) W-SW 247 6,7 C 12,4 C
30.05.2012 05:26 12,3 C 68 % 1015,1 hPa 0,0 l/m 0,0 km/h (0 Bft) W 270 6,6 C 12,3 C
30.05.2012 05:31 12,3 C 68 % 1015,1 hPa 0,0 l/m 0,0 km/h (0 Bft) W 270 6,6 C 12,3 C
30.05.2012 05:36 12,3 C 68 % 1015,2 hPa 0,0 l/m 1,4 km/h (1 Bft) W 270 6,6 C 12,3 C
30.05.2012 05:41 12,3 C 68 % 1015,2 hPa 0,0 l/m 0,0 km/h (0 Bft) W-SW 247 6,6 C 12,3 C
30.05.2012 05:46 12,3 C 68 % 1015,2 hPa 0,0 l/m 3,2 km/h (1 Bft) W-SW 247 6,6 C 12,3 C
30.05.2012 05:51 12,3 C 68 % 1015,2 hPa 0,0 l/m 0,0 km/h (0 Bft) W-NW 292 6,6 C 12,3 C
30.05.2012 05:56 12,1 C 68 % 1015,0 hPa 0,0 l/m 0,0 km/h (0 Bft) W-NW 292 6,4 C 12,1 C
30.05.2012 06:01 11,9 C 69 % 1014,9 hPa 0,0 l/m 2,9 km/h (1 Bft) W-SW 247 6,4 C 11,9 C
30.05.2012 06:06 12,1 C 69 % 1015,0 hPa 0,0 l/m 3,2 km/h (1 Bft) W-SW 247 6,6 C 12,1 C
30.05.2012 06:11 12,1 C 69 % 1015,1 hPa 0,0 l/m 4,0 km/h (1 Bft) SW 225 6,6 C 12,1 C
30.05.2012 06:16 12,2 C 69 % 1015,1 hPa 0,0 l/m 4,0 km/h (1 Bft) W-SW 247 6,7 C 12,2 C
30.05.2012 06:21 12,3 C 69 % 1015,3 hPa 0,0 l/m 0,0 km/h (0 Bft) W 270 6,8 C 12,3 C
30.05.2012 06:26 12,3 C 69 % 1015,3 hPa 0,0 l/m 2,5 km/h (1 Bft) W-SW 247 6,8 C 12,3 C
30.05.2012 06:31 12,2 C 69 % 1015,5 hPa 0,0 l/m 2,5 km/h (1 Bft) W 270 6,7 C 12,2 C
30.05.2012 06:36 12,1 C 70 % 1015,4 hPa 0,0 l/m 2,5 km/h (1 Bft) W-NW 292 6,8 C 12,1 C
30.05.2012 06:41 11,9 C 70 % 1015,4 hPa 0,0 l/m 3,6 km/h (1 Bft) W-NW 292 6,6 C 11,9 C
30.05.2012 06:46 11,9 C 71 % 1015,4 hPa 0,0 l/m 1,4 km/h (1 Bft) W-NW 292 6,8 C 11,9 C
30.05.2012 06:51 11,9 C 71 % 1015,3 hPa 0,0 l/m 4,0 km/h (1 Bft) W-NW 292 6,8 C 11,9 C
30.05.2012 06:56 12,1 C 71 % 1015,4 hPa 0,0 l/m 2,2 km/h (1 Bft) W 270 7,0 C 12,1 C
30.05.2012 07:01 12,1 C 72 % 1015,4 hPa 0,0 l/m 2,9 km/h (1 Bft) W-NW 292 7,2 C 12,1 C
30.05.2012 07:06 12,1 C 72 % 1015,5 hPa 0,0 l/m 8,6 km/h (2 Bft) W 270 7,2 C 12,1 C
30.05.2012 07:11 12,3 C 72 % 1015,5 hPa 0,0 l/m 4,7 km/h (1 Bft) W-SW 247 7,4 C 12,3 C
30.05.2012 07:16 12,4 C 73 % 1015,5 hPa 0,0 l/m 2,9 km/h (1 Bft) W 270 7,7 C 12,4 C
30.05.2012 07:21 12,5 C 73 % 1015,5 hPa 0,0 l/m 5,4 km/h (1 Bft) W-SW 247 7,8 C 12,5 C
30.05.2012 07:26 12,7 C 72 % 1015,6 hPa 0,0 l/m 7,9 km/h (2 Bft) W-NW 292 7,8 C 12,7 C
30.05.2012 07:31 12,8 C 72 % 1015,6 hPa 0,0 l/m 12,2 km/h (2 Bft) W 270 7,9 C 12,8 C
30.05.2012 07:36 12,9 C 72 % 1015,7 hPa 0,0 l/m 16,9 km/h (3 Bft) W 270 8,0 C 12,9 C
30.05.2012 07:41 12,9 C 72 % 1015,7 hPa 0,0 l/m 9,4 km/h (2 Bft) W 270 8,0 C 12,9 C
30.05.2012 07:46 13,0 C 72 % 1015,7 hPa 0,0 l/m 7,9 km/h (2 Bft) W 270 8,1 C 13,0 C
30.05.2012 07:51 13,1 C 72 % 1015,7 hPa 0,0 l/m 6,1 km/h (2 Bft) W 270 8,2 C 13,1 C
30.05.2012 07:56 13,1 C 72 % 1015,8 hPa 0,0 l/m 10,1 km/h (2 Bft) NW 315 8,2 C 13,1 C
30.05.2012 08:01 13,1 C 72 % 1015,8 hPa 0,0 l/m 7,9 km/h (2 Bft) NW 315 8,2 C 13,1 C
30.05.2012 08:06 13,2 C 72 % 1015,8 hPa 0,0 l/m 17,6 km/h (3 Bft) W-NW 292 8,3 C 13,2 C
30.05.2012 08:11 13,3 C 72 % 1015,7 hPa 0,0 l/m 8,6 km/h (2 Bft) W-NW 292 8,4 C 13,3 C
30.05.2012 08:16 13,4 C 72 % 1015,7 hPa 0,0 l/m 13,7 km/h (3 Bft) W-NW 292 8,5 C 13,4 C
30.05.2012 08:21 13,6 C 70 % 1015,8 hPa 0,0 l/m 12,2 km/h (2 Bft) W 270 8,2 C 13,6 C
30.05.2012 08:26 13,8 C 70 % 1015,7 hPa 0,0 l/m 5,8 km/h (2 Bft) W-NW 292 8,4 C 13,8 C
30.05.2012 08:31 13,8 C 70 % 1015,8 hPa 0,0 l/m 8,6 km/h (2 Bft) W 270 8,4 C 13,8 C
30.05.2012 08:36 13,8 C 69 % 1015,8 hPa 0,0 l/m 14,0 km/h (3 Bft) W 270 8,2 C 13,8 C
30.05.2012 08:41 13,8 C 69 % 1015,9 hPa 0,0 l/m 4,7 km/h (1 Bft) W 270 8,2 C 13,8 C
30.05.2012 08:46 13,9 C 68 % 1015,9 hPa 0,0 l/m 13,0 km/h (3 Bft) W 270 8,1 C 13,9 C
30.05.2012 08:51 13,9 C 68 % 1015,9 hPa 0,0 l/m 16,9 km/h (3 Bft) W-SW 247 8,1 C 13,9 C
30.05.2012 08:56 13,9 C 67 % 1015,9 hPa 0,0 l/m 7,6 km/h (2 Bft) W 270 7,9 C 13,9 C
30.05.2012 09:01 13,9 C 67 % 1016,0 hPa 0,0 l/m 5,0 km/h (1 Bft) W-NW 292 7,9 C 13,9 C
30.05.2012 09:06 13,9 C 67 % 1016,0 hPa 0,0 l/m 11,2 km/h (2 Bft) W-NW 292 7,9 C 13,9 C
30.05.2012 09:11 14,0 C 67 % 1015,9 hPa 0,0 l/m 18,4 km/h (3 Bft) NW 315 8,0 C 14,0 C
30.05.2012 09:16 14,2 C 66 % 1016,1 hPa 0,0 l/m 5,8 km/h (2 Bft) W-NW 292 7,9 C 14,2 C
30.05.2012 09:21 14,6 C 66 % 1016,0 hPa 0,0 l/m 9,4 km/h (2 Bft) W 270 8,3 C 14,6 C
30.05.2012 09:26 14,6 C 64 % 1016,2 hPa 0,0 l/m 9,4 km/h (2 Bft) W-SW 247 7,9 C 14,6 C
30.05.2012 09:31 14,4 C 64 % 1016,2 hPa 0,0 l/m 21,6 km/h (4 Bft) W-NW 292 7,7 C 14,4 C
30.05.2012 09:36 14,4 C 63 % 1016,2 hPa 0,0 l/m 7,2 km/h (2 Bft) NW 315 7,4 C 14,4 C
30.05.2012 09:41 14,4 C 63 % 1016,2 hPa 0,0 l/m 14,4 km/h (3 Bft) W 270 7,4 C 14,4 C
30.05.2012 09:46 14,8 C 63 % 1016,3 hPa 0,0 l/m 14,4 km/h (3 Bft) N-NW 337 7,8 C 14,8 C
30.05.2012 09:51 14,9 C 60 % 1016,2 hPa 0,0 l/m 11,9 km/h (2 Bft) W-NW 292 7,2 C 14,9 C
30.05.2012 09:56 14,9 C 60 % 1016,3 hPa 0,0 l/m 12,6 km/h (3 Bft) W 270 7,2 C 14,9 C
30.05.2012 10:01 14,8 C 60 % 1016,4 hPa 0,0 l/m 9,7 km/h (2 Bft) W-NW 292 7,1 C 14,8 C
30.05.2012 10:06 14,8 C 60 % 1016,5 hPa 0,0 l/m 12,2 km/h (2 Bft) W-NW 292 7,1 C 14,8 C
30.05.2012 10:11 14,7 C 60 % 1016,5 hPa 0,0 l/m 12,6 km/h (3 Bft) NW 315 7,0 C 14,7 C
30.05.2012 10:16 14,6 C 60 % 1016,6 hPa 0,0 l/m 27,4 km/h (4 Bft) NW 315 6,9 C 14,6 C
30.05.2012 10:21 14,8 C 60 % 1016,7 hPa 0,0 l/m 11,9 km/h (2 Bft) W-NW 292 7,1 C 14,8 C
30.05.2012 10:26 14,7 C 59 % 1016,7 hPa 0,0 l/m 5,0 km/h (1 Bft) W 270 6,8 C 14,7 C
30.05.2012 10:31 14,6 C 60 % 1016,6 hPa 0,0 l/m 3,6 km/h (1 Bft) W 270 6,9 C 14,6 C
30.05.2012 10:36 14,8 C 60 % 1016,7 hPa 0,0 l/m 10,1 km/h (2 Bft) N-NW 337 7,1 C 14,8 C
30.05.2012 10:41 14,8 C 59 % 1016,8 hPa 0,0 l/m 10,1 km/h (2 Bft) W-NW 292 6,9 C 14,8 C
30.05.2012 10:46 14,8 C 59 % 1016,7 hPa 0,0 l/m 11,2 km/h (2 Bft) W-NW 292 6,9 C 14,8 C
30.05.2012 10:51 14,8 C 59 % 1016,8 hPa 0,0 l/m 7,9 km/h (2 Bft) W-NW 292 6,9 C 14,8 C
30.05.2012 10:56 14,6 C 59 % 1016,8 hPa 0,0 l/m 7,9 km/h (2 Bft) W-SW 247 6,7 C 14,6 C
30.05.2012 11:01 14,6 C 59 % 1016,8 hPa 0,0 l/m 5,0 km/h (1 Bft) W 270 6,7 C 14,6 C
30.05.2012 11:06 14,5 C 58 % 1016,9 hPa 0,0 l/m 25,2 km/h (4 Bft) W-NW 292 6,3 C 14,5 C
30.05.2012 11:11 14,4 C 59 % 1016,9 hPa 0,0 l/m 7,2 km/h (2 Bft) N 360 6,5 C 14,4 C
30.05.2012 11:16 14,4 C 59 % 1017,1 hPa 0,0 l/m 7,9 km/h (2 Bft) NW 315 6,5 C 14,4 C
30.05.2012 11:21 14,4 C 59 % 1017,0 hPa 0,0 l/m 7,6 km/h (2 Bft) W-NW 292 6,5 C 14,4 C
30.05.2012 11:26 14,4 C 59 % 1017,1 hPa 0,0 l/m 13,7 km/h (3 Bft) W-NW 292 6,5 C 14,4 C
30.05.2012 11:31 14,4 C 59 % 1017,2 hPa 0,0 l/m 13,3 km/h (3 Bft) W-NW 292 6,5 C 14,4 C
30.05.2012 11:36 14,4 C 60 % 1017,3 hPa 0,0 l/m 9,0 km/h (2 Bft) W 270 6,7 C 14,4 C
30.05.2012 11:41 14,4 C 59 % 1017,4 hPa 0,0 l/m 9,0 km/h (2 Bft) W-NW 292 6,5 C 14,4 C
30.05.2012 11:46 14,3 C 58 % 1017,1 hPa 0,0 l/m 7,6 km/h (2 Bft) W-NW 292 6,2 C 14,3 C
30.05.2012 11:51 14,3 C 59 % 1017,5 hPa 0,0 l/m 16,9 km/h (3 Bft) W 270 6,4 C 14,3 C
30.05.2012 11:56 14,3 C 59 % 1017,3 hPa 0,0 l/m 7,2 km/h (2 Bft) W-NW 292 6,4 C 14,3 C
30.05.2012 12:01 14,5 C 58 % 1017,4 hPa 0,0 l/m 9,4 km/h (2 Bft) W-SW 247 6,3 C 14,5 C
30.05.2012 12:06 14,8 C 58 % 1017,5 hPa 0,0 l/m 7,6 km/h (2 Bft) W 270 6,6 C 14,8 C
30.05.2012 12:11 14,8 C 57 % 1017,6 hPa 0,0 l/m 14,4 km/h (3 Bft) W-NW 292 6,4 C 14,8 C
30.05.2012 12:16 14,9 C 56 % 1017,5 hPa 0,0 l/m 8,3 km/h (2 Bft) W-NW 292 6,2 C 14,9 C
30.05.2012 12:21 14,9 C 56 % 1017,7 hPa 0,0 l/m 8,6 km/h (2 Bft) N-NW 337 6,2 C 14,9 C
30.05.2012 12:26 14,9 C 55 % 1017,7 hPa 0,0 l/m 7,6 km/h (2 Bft) W 270 5,9 C 14,9 C
30.05.2012 12:31 14,8 C 57 % 1017,6 hPa 0,0 l/m 6,5 km/h (2 Bft) W 270 6,4 C 14,8 C
30.05.2012 12:36 14,7 C 57 % 1017,5 hPa 0,0 l/m 13,0 km/h (3 Bft) W 270 6,3 C 14,7 C
30.05.2012 12:41 14,6 C 58 % 1017,7 hPa 0,0 l/m 11,5 km/h (2 Bft) W-NW 292 6,4 C 14,6 C
30.05.2012 12:46 14,8 C 59 % 1017,6 hPa 0,0 l/m 7,9 km/h (2 Bft) NW 315 6,9 C 14,8 C
30.05.2012 12:51 14,9 C 58 % 1017,5 hPa 0,0 l/m 10,1 km/h (2 Bft) NW 315 6,7 C 14,9 C
30.05.2012 12:56 15,3 C 58 % 1017,4 hPa 0,0 l/m 11,5 km/h (2 Bft) W 270 7,1 C 15,3 C
30.05.2012 13:01 15,4 C 58 % 1017,5 hPa 0,0 l/m 6,5 km/h (2 Bft) W 270 7,2 C 15,4 C
30.05.2012 13:06 15,5 C 57 % 1017,5 hPa 0,0 l/m 11,2 km/h (2 Bft) N-NW 337 7,0 C 15,5 C
30.05.2012 13:11 15,6 C 57 % 1017,5 hPa 0,0 l/m 17,6 km/h (3 Bft) W-NW 292 7,1 C 15,6 C
30.05.2012 13:16 15,7 C 57 % 1017,4 hPa 0,0 l/m 11,9 km/h (2 Bft) NW 315 7,2 C 15,7 C
30.05.2012 13:21 15,8 C 56 % 1017,3 hPa 0,0 l/m 7,9 km/h (2 Bft) W 270 7,0 C 15,8 C
30.05.2012 13:26 15,9 C 56 % 1017,4 hPa 0,0 l/m 7,2 km/h (2 Bft) W-NW 292 7,1 C 15,9 C
30.05.2012 13:31 15,9 C 55 % 1017,4 hPa 0,0 l/m 7,6 km/h (2 Bft) NW 315 6,9 C 15,9 C
30.05.2012 13:36 15,9 C 56 % 1017,4 hPa 0,0 l/m 14,4 km/h (3 Bft) W 270 7,1 C 15,9 C
30.05.2012 13:41 15,9 C 55 % 1017,5 hPa 0,0 l/m 7,9 km/h (2 Bft) W 270 6,9 C 15,9 C
30.05.2012 13:46 15,8 C 55 % 1017,5 hPa 0,0 l/m 6,5 km/h (2 Bft) W-SW 247 6,8 C 15,8 C
30.05.2012 13:51 15,8 C 55 % 1017,5 hPa 0,0 l/m 7,6 km/h (2 Bft) NW 315 6,8 C 15,8 C
30.05.2012 13:56 15,9 C 55 % 1017,4 hPa 0,0 l/m 7,9 km/h (2 Bft) W-NW 292 6,9 C 15,9 C
30.05.2012 14:01 16,1 C 55 % 1017,4 hPa 0,0 l/m 11,9 km/h (2 Bft) N 360 7,1 C 16,1 C
30.05.2012 14:06 16,1 C 54 % 1017,4 hPa 0,0 l/m 3,2 km/h (1 Bft) W-NW 292 6,8 C 16,1 C
30.05.2012 14:11 15,9 C 54 % 1017,5 hPa 0,0 l/m 5,8 km/h (2 Bft) SW 225 6,6 C 15,9 C
30.05.2012 14:16 15,9 C 55 % 1017,5 hPa 0,0 l/m 13,0 km/h (3 Bft) NW 315 6,9 C 15,9 C
30.05.2012 14:21 15,8 C 55 % 1017,6 hPa 0,0 l/m 4,3 km/h (1 Bft) W-NW 292 6,8 C 15,8 C
30.05.2012 14:26 15,7 C 55 % 1017,6 hPa 0,0 l/m 6,1 km/h (2 Bft) NW 315 6,7 C 15,7 C
30.05.2012 14:31 15,8 C 55 % 1017,6 hPa 0,0 l/m 4,0 km/h (1 Bft) W 270 6,8 C 15,8 C
30.05.2012 14:36 15,9 C 55 % 1017,4 hPa 0,0 l/m 6,8 km/h (2 Bft) W-NW 292 6,9 C 15,9 C
30.05.2012 14:41 15,9 C 55 % 1017,4 hPa 0,0 l/m 6,1 km/h (2 Bft) N-NW 337 6,9 C 15,9 C
30.05.2012 14:46 16,1 C 55 % 1017,4 hPa 0,0 l/m 9,4 km/h (2 Bft) W 270 7,1 C 16,1 C
30.05.2012 14:51 16,3 C 54 % 1017,5 hPa 0,0 l/m 11,2 km/h (2 Bft) W-SW 247 7,0 C 16,3 C
30.05.2012 14:56 16,3 C 54 % 1017,5 hPa 0,0 l/m 8,6 km/h (2 Bft) W-SW 247 7,0 C 16,3 C
30.05.2012 15:01 16,4 C 54 % 1017,5 hPa 0,0 l/m 2,5 km/h (1 Bft) W 270 7,1 C 16,4 C
30.05.2012 15:06 16,5 C 54 % 1017,5 hPa 0,0 l/m 11,2 km/h (2 Bft) W-NW 292 7,2 C 16,5 C
30.05.2012 15:11 16,5 C 54 % 1017,5 hPa 0,0 l/m 5,0 km/h (1 Bft) W-NW 292 7,2 C 16,5 C
30.05.2012 15:16 16,5 C 54 % 1017,6 hPa 0,0 l/m 5,8 km/h (2 Bft) W-NW 292 7,2 C 16,5 C
30.05.2012 15:21 16,6 C 53 % 1017,4 hPa 0,0 l/m 5,8 km/h (2 Bft) W-NW 292 7,0 C 16,6 C
30.05.2012 15:26 16,6 C 53 % 1017,5 hPa 0,0 l/m 16,9 km/h (3 Bft) W-NW 292 7,0 C 16,6 C
30.05.2012 15:31 16,9 C 53 % 1017,4 hPa 0,0 l/m 7,9 km/h (2 Bft) NW 315 7,3 C 16,9 C
30.05.2012 15:36 17,1 C 53 % 1017,5 hPa 0,0 l/m 6,8 km/h (2 Bft) W 270 7,4 C 17,1 C
30.05.2012 15:41 17,1 C 52 % 1017,3 hPa 0,0 l/m 13,0 km/h (3 Bft) W 270 7,2 C 17,1 C
30.05.2012 15:46 17,0 C 52 % 1017,4 hPa 0,0 l/m 5,0 km/h (1 Bft) W-NW 292 7,1 C 17,0 C
30.05.2012 15:51 17,0 C 53 % 1017,4 hPa 0,0 l/m 11,9 km/h (2 Bft) W 270 7,4 C 17,0 C
30.05.2012 15:56 17,1 C 52 % 1017,4 hPa 0,0 l/m 18,0 km/h (3 Bft) W-NW 292 7,2 C 17,1 C
30.05.2012 16:01 16,9 C 51 % 1017,5 hPa 0,0 l/m 9,4 km/h (2 Bft) W-NW 292 6,7 C 16,9 C
30.05.2012 16:06 16,8 C 51 % 1017,4 hPa 0,0 l/m 7,6 km/h (2 Bft) W-NW 292 6,6 C 16,8 C
30.05.2012 16:11 16,8 C 51 % 1017,5 hPa 0,0 l/m 5,0 km/h (1 Bft) N-NW 337 6,6 C 16,8 C
30.05.2012 16:16 16,5 C 51 % 1017,4 hPa 0,0 l/m 8,6 km/h (2 Bft) N-NO 22 6,3 C 16,5 C
30.05.2012 16:21 16,5 C 51 % 1017,6 hPa 0,0 l/m 4,0 km/h (1 Bft) N 360 6,3 C 16,5 C
30.05.2012 16:26 16,7 C 51 % 1017,5 hPa 0,0 l/m 4,0 km/h (1 Bft) N 360 6,5 C 16,7 C
30.05.2012 16:31 16,7 C 50 % 1017,4 hPa 0,0 l/m 4,0 km/h (1 Bft) NW 315 6,2 C 16,7 C
30.05.2012 16:36 16,7 C 49 % 1017,6 hPa 0,0 l/m 5,4 km/h (1 Bft) N 360 5,9 C 16,7 C
30.05.2012 16:41 16,6 C 50 % 1017,5 hPa 0,0 l/m 2,9 km/h (1 Bft) NW 315 6,1 C 16,6 C
30.05.2012 16:46 16,8 C 50 % 1017,6 hPa 0,0 l/m 2,9 km/h (1 Bft) N-NW 337 6,3 C 16,8 C
30.05.2012 16:51 16,8 C 49 % 1017,5 hPa 0,0 l/m 4,7 km/h (1 Bft) N-NO 22 6,0 C 16,8 C
30.05.2012 16:56 16,7 C 48 % 1017,5 hPa 0,0 l/m 1,8 km/h (1 Bft) N-NO 22 5,6 C 16,7 C
30.05.2012 17:01 16,6 C 48 % 1017,5 hPa 0,0 l/m 5,0 km/h (1 Bft) N 360 5,5 C 16,6 C
30.05.2012 17:06 16,7 C 49 % 1017,5 hPa 0,0 l/m 1,8 km/h (1 Bft) W-NW 292 5,9 C 16,7 C
30.05.2012 17:11 16,9 C 49 % 1017,4 hPa 0,0 l/m 6,8 km/h (2 Bft) NW 315 6,1 C 16,9 C
30.05.2012 17:16 16,9 C 49 % 1017,5 hPa 0,0 l/m 2,2 km/h (1 Bft) W-NW 292 6,1 C 16,9 C
30.05.2012 17:21 17,1 C 49 % 1017,6 hPa 0,0 l/m 11,2 km/h (2 Bft) W 270 6,3 C 17,1 C
30.05.2012 17:26 17,1 C 49 % 1017,6 hPa 0,0 l/m 5,0 km/h (1 Bft) N 360 6,3 C 17,1 C
30.05.2012 17:31 17,1 C 49 % 1017,4 hPa 0,0 l/m 4,3 km/h (1 Bft) N 360 6,3 C 17,1 C
30.05.2012 17:36 17,0 C 49 % 1017,5 hPa 0,0 l/m 6,1 km/h (2 Bft) N-NO 22 6,2 C 17,0 C
30.05.2012 17:41 16,9 C 49 % 1017,6 hPa 0,0 l/m 4,7 km/h (1 Bft) N-NW 337 6,1 C 16,9 C
30.05.2012 17:46 16,6 C 49 % 1017,5 hPa 0,0 l/m 5,8 km/h (2 Bft) NO 45 5,8 C 16,6 C
30.05.2012 17:51 16,5 C 50 % 1017,5 hPa 0,0 l/m 2,9 km/h (1 Bft) W-NW 292 6,0 C 16,5 C
30.05.2012 17:56 16,4 C 50 % 1017,8 hPa 0,0 l/m 2,5 km/h (1 Bft) NO 45 6,0 C 16,4 C
30.05.2012 18:01 16,4 C 51 % 1017,6 hPa 0,0 l/m 2,9 km/h (1 Bft) NW 315 6,2 C 16,4 C
30.05.2012 18:06 16,5 C 50 % 1017,7 hPa 0,0 l/m 10,1 km/h (2 Bft) N 360 6,0 C 16,5 C
30.05.2012 18:11 16,4 C 50 % 1017,8 hPa 0,0 l/m 7,2 km/h (2 Bft) N-NW 337 6,0 C 16,4 C
30.05.2012 18:16 16,4 C 51 % 1017,7 hPa 0,0 l/m 8,6 km/h (2 Bft) NO 45 6,2 C 16,4 C
30.05.2012 18:21 16,4 C 51 % 1017,8 hPa 0,0 l/m 0,0 km/h (0 Bft) O-SO 112 6,2 C 16,4 C
30.05.2012 18:26 16,3 C 51 % 1017,6 hPa 0,0 l/m 2,9 km/h (1 Bft) N-NO 22 6,1 C 16,3 C
30.05.2012 18:31 16,1 C 51 % 1017,6 hPa 0,0 l/m 4,3 km/h (1 Bft) N-NW 337 6,0 C 16,1 C
30.05.2012 18:36 16,1 C 51 % 1017,6 hPa 0,0 l/m 8,3 km/h (2 Bft) N-NO 22 6,0 C 16,1 C
30.05.2012 18:41 16,2 C 52 % 1017,7 hPa 0,0 l/m 7,6 km/h (2 Bft) N-NW 337 6,3 C 16,2 C
30.05.2012 18:46 16,2 C 52 % 1017,8 hPa 0,0 l/m 4,0 km/h (1 Bft) O-NO 67 6,3 C 16,2 C
30.05.2012 18:51 16,2 C 52 % 1017,9 hPa 0,0 l/m 3,6 km/h (1 Bft) O-SO 112 6,3 C 16,2 C
30.05.2012 18:56 16,1 C 52 % 1017,8 hPa 0,0 l/m 10,1 km/h (2 Bft) NO 45 6,2 C 16,1 C
30.05.2012 19:01 16,1 C 52 % 1017,7 hPa 0,0 l/m 0,0 km/h (0 Bft) W 270 6,2 C 16,1 C
30.05.2012 19:06 16,3 C 52 % 1017,8 hPa 0,0 l/m 6,5 km/h (2 Bft) NW 315 6,4 C 16,3 C
30.05.2012 19:11 16,4 C 51 % 1017,9 hPa 0,0 l/m 0,0 km/h (0 Bft) N-NW 337 6,2 C 16,4 C
30.05.2012 19:16 16,6 C 51 % 1017,8 hPa 0,0 l/m 3,6 km/h (1 Bft) W-NW 292 6,4 C 16,6 C
30.05.2012 19:21 16,8 C 51 % 1017,8 hPa 0,0 l/m 2,5 km/h (1 Bft) N-NO 22 6,6 C 16,8 C
30.05.2012 19:26 16,6 C 50 % 1017,9 hPa 0,0 l/m 0,0 km/h (0 Bft) N 360 6,1 C 16,6 C
30.05.2012 19:31 16,4 C 50 % 1017,9 hPa 0,0 l/m 0,0 km/h (0 Bft) N-NW 337 6,0 C 16,4 C
30.05.2012 19:36 16,4 C 50 % 1017,8 hPa 0,0 l/m 3,2 km/h (1 Bft) O-NO 67 6,0 C 16,4 C
30.05.2012 19:41 16,3 C 51 % 1017,9 hPa 0,0 l/m 3,6 km/h (1 Bft) NW 315 6,1 C 16,3 C
30.05.2012 19:46 16,3 C 51 % 1017,8 hPa 0,0 l/m 8,3 km/h (2 Bft) W-NW 292 6,1 C 16,3 C
30.05.2012 19:51 16,3 C 51 % 1017,9 hPa 0,0 l/m 4,3 km/h (1 Bft) NW 315 6,1 C 16,3 C
30.05.2012 19:56 16,2 C 51 % 1017,9 hPa 0,0 l/m 4,0 km/h (1 Bft) NW 315 6,1 C 16,2 C
30.05.2012 20:01 16,2 C 51 % 1018,1 hPa 0,0 l/m 0,0 km/h (0 Bft) W 270 6,1 C 16,2 C
30.05.2012 20:06 16,3 C 52 % 1018,0 hPa 0,0 l/m 4,3 km/h (1 Bft) N-NW 337 6,4 C 16,3 C
30.05.2012 20:11 16,3 C 51 % 1018,1 hPa 0,0 l/m 3,2 km/h (1 Bft) NW 315 6,1 C 16,3 C
30.05.2012 20:16 16,2 C 51 % 1018,0 hPa 0,0 l/m 5,4 km/h (1 Bft) W 270 6,1 C 16,2 C
30.05.2012 20:21 16,1 C 51 % 1018,3 hPa 0,0 l/m 4,0 km/h (1 Bft) NW 315 6,0 C 16,1 C
30.05.2012 20:26 16,1 C 51 % 1018,1 hPa 0,0 l/m 10,8 km/h (2 Bft) NW 315 6,0 C 16,1 C
30.05.2012 20:31 15,9 C 51 % 1018,1 hPa 0,0 l/m 5,0 km/h (1 Bft) W 270 5,8 C 15,9 C
30.05.2012 20:36 15,9 C 51 % 1018,3 hPa 0,0 l/m 10,4 km/h (2 Bft) W-SW 247 5,8 C 15,9 C
30.05.2012 20:41 15,8 C 52 % 1018,2 hPa 0,0 l/m 5,8 km/h (2 Bft) NW 315 6,0 C 15,8 C
30.05.2012 20:46 15,6 C 52 % 1018,2 hPa 0,0 l/m 3,2 km/h (1 Bft) NW 315 5,8 C 15,6 C
30.05.2012 20:51 15,5 C 52 % 1018,5 hPa 0,0 l/m 3,2 km/h (1 Bft) W 270 5,7 C 15,5 C
30.05.2012 20:56 15,4 C 53 % 1018,3 hPa 0,0 l/m 5,4 km/h (1 Bft) NW 315 5,9 C 15,4 C
30.05.2012 21:01 15,3 C 53 % 1018,4 hPa 0,0 l/m 8,6 km/h (2 Bft) N-NW 337 5,8 C 15,3 C
30.05.2012 21:06 15,3 C 53 % 1018,2 hPa 0,0 l/m 4,0 km/h (1 Bft) N-NW 337 5,8 C 15,3 C
30.05.2012 21:11 15,2 C 54 % 1018,5 hPa 0,0 l/m 1,8 km/h (1 Bft) N 360 6,0 C 15,2 C
30.05.2012 21:16 15,1 C 54 % 1018,2 hPa 0,0 l/m 5,0 km/h (1 Bft) W-SW 247 5,9 C 15,1 C
30.05.2012 21:21 14,9 C 54 % 1018,2 hPa 0,0 l/m 0,0 km/h (0 Bft) W-NW 292 5,7 C 14,9 C
30.05.2012 21:26 14,9 C 54 % 1018,3 hPa 0,0 l/m 4,0 km/h (1 Bft) N 360 5,7 C 14,9 C
30.05.2012 21:31 14,9 C 54 % 1018,5 hPa 0,0 l/m 2,2 km/h (1 Bft) O 90 5,7 C 14,9 C
30.05.2012 21:36 14,9 C 55 % 1018,6 hPa 0,0 l/m 11,2 km/h (2 Bft) NW 315 5,9 C 14,9 C
30.05.2012 21:41 14,7 C 55 % 1018,5 hPa 0,0 l/m 0,0 km/h (0 Bft) N-NW 337 5,8 C 14,7 C
30.05.2012 21:46 14,6 C 56 % 1018,6 hPa 0,0 l/m 1,4 km/h (1 Bft) NW 315 5,9 C 14,6 C
30.05.2012 21:51 14,4 C 56 % 1018,5 hPa 0,0 l/m 4,7 km/h (1 Bft) N 360 5,7 C 14,4 C
30.05.2012 21:56 14,3 C 56 % 1018,6 hPa 0,0 l/m 0,0 km/h (0 Bft) N 360 5,6 C 14,3 C
30.05.2012 22:01 14,1 C 56 % 1018,6 hPa 0,0 l/m 0,0 km/h (0 Bft) NO 45 5,5 C 14,1 C
30.05.2012 22:06 13,9 C 57 % 1018,5 hPa 0,0 l/m 0,0 km/h (0 Bft) NW 315 5,5 C 13,9 C
30.05.2012 22:11 13,9 C 58 % 1018,6 hPa 0,0 l/m 1,4 km/h (1 Bft) NO 45 5,8 C 13,9 C
30.05.2012 22:16 13,8 C 58 % 1018,6 hPa 0,0 l/m 4,3 km/h (1 Bft) N 360 5,7 C 13,8 C
30.05.2012 22:21 13,8 C 59 % 1018,6 hPa 0,0 l/m 6,1 km/h (2 Bft) NW 315 5,9 C 13,8 C
30.05.2012 22:26 13,8 C 59 % 1018,7 hPa 0,0 l/m 4,7 km/h (1 Bft) W-NW 292 5,9 C 13,8 C
30.05.2012 22:31 13,8 C 59 % 1018,6 hPa 0,0 l/m 1,1 km/h (1 Bft) N-NO 22 5,9 C 13,8 C
30.05.2012 22:36 13,8 C 59 % 1018,7 hPa 0,0 l/m 1,1 km/h (1 Bft) N-NO 22 5,9 C 13,8 C
30.05.2012 22:41 13,8 C 59 % 1018,6 hPa 0,0 l/m 4,0 km/h (1 Bft) N-NW 337 5,9 C 13,8 C
30.05.2012 22:46 13,8 C 59 % 1018,8 hPa 0,0 l/m 4,3 km/h (1 Bft) NW 315 5,9 C 13,8 C
30.05.2012 22:51 13,8 C 59 % 1018,8 hPa 0,0 l/m 0,0 km/h (0 Bft) NO 45 5,9 C 13,8 C
30.05.2012 22:56 13,8 C 60 % 1018,6 hPa 0,0 l/m 0,0 km/h (0 Bft) NW 315 6,2 C 13,8 C
30.05.2012 23:01 13,8 C 60 % 1018,8 hPa 0,0 l/m 0,0 km/h (0 Bft) NO 45 6,2 C 13,8 C
30.05.2012 23:06 13,8 C 60 % 1018,8 hPa 0,0 l/m 2,2 km/h (1 Bft) N-NW 337 6,2 C 13,8 C
30.05.2012 23:11 13,6 C 60 % 1018,7 hPa 0,0 l/m 2,5 km/h (1 Bft) N-NW 337 6,0 C 13,6 C
30.05.2012 23:16 13,6 C 60 % 1018,7 hPa 0,0 l/m 1,8 km/h (1 Bft) W-NW 292 6,0 C 13,6 C
30.05.2012 23:21 13,7 C 60 % 1018,7 hPa 0,0 l/m 2,5 km/h (1 Bft) NW 315 6,1 C 13,7 C
30.05.2012 23:26 13,8 C 61 % 1018,6 hPa 0,0 l/m 1,8 km/h (1 Bft) W-NW 292 6,4 C 13,8 C
30.05.2012 23:31 13,8 C 61 % 1018,7 hPa 0,0 l/m 0,0 km/h (0 Bft) W 270 6,4 C 13,8 C
30.05.2012 23:36 13,8 C 61 % 1018,8 hPa 0,0 l/m 6,8 km/h (2 Bft) W-NW 292 6,4 C 13,8 C
30.05.2012 23:41 13,8 C 61 % 1018,8 hPa 0,0 l/m 2,9 km/h (1 Bft) W-NW 292 6,4 C 13,8 C
30.05.2012 23:46 13,8 C 61 % 1018,7 hPa 0,0 l/m 2,5 km/h (1 Bft) W-NW 292 6,4 C 13,8 C
30.05.2012 23:51 13,6 C 61 % 1018,7 hPa 0,0 l/m 0,0 km/h (0 Bft) NW 315 6,2 C 13,6 C
30.05.2012 23:56 13,8 C 61 % 1018,7 hPa 0,0 l/m 0,0 km/h (0 Bft) NW 315 6,4 C 13,8 C
_ Min-Zeit 06:01 16:56 00:06 - 00:21 - - 22:01 06:01
Minimum _ 11,9 C 48 % 1014,8 hPa - 0,0 km/h (0 Bft) - - 5,5 C 11,9 C
_ Max-Zeit 15:36 07:16 22:46 00:01 10:16 - - 08:16 15:36
Maximum _ 17,1 C 73 % 1018,8 hPa 0,0 l/m 27,4 km/h
NW (4 Bft)
- - 8,5 C 17,1 C
Durchschnitt _ 14,5 C 60 % 1016,7 hPa #0,0 l/m 5,2 km/h (1 Bft) W-NW - 6,7 C 14,5 C
(c) by David Heller